createdAt,value
2018-07-28T00:01:54.777Z,99267.08
2018-07-28T00:04:25.108Z,99259.61
2018-07-28T00:06:55.392Z,99261.81
2018-07-28T00:09:25.677Z,99256.47
2018-07-28T00:11:56.069Z,99248.55
2018-07-28T00:14:26.378Z,99242.95
2018-07-28T00:16:57.092Z,99242.02
2018-07-28T00:19:27.473Z,99239.55
2018-07-28T00:21:58.280Z,99240.92
2018-07-28T00:24:28.985Z,99237.73
2018-07-28T00:26:59.817Z,99229.91
2018-07-28T00:29:30.388Z,99233.17
2018-07-28T00:32:01.069Z,99242.78
2018-07-28T00:34:31.818Z,99239.42
2018-07-28T00:37:02.677Z,99235.71
2018-07-28T00:39:33.221Z,99235.34
2018-07-28T00:42:04.188Z,99228.28
2018-07-28T00:44:34.493Z,99224.52
2018-07-28T00:47:05.242Z,99222.72
2018-07-28T00:49:35.845Z,99218.72
2018-07-28T00:52:06.661Z,99217.80
2018-07-28T00:54:37.212Z,99222.50
2018-07-28T00:57:07.683Z,99220.43
2018-07-28T00:59:38.002Z,99223.89
2018-07-28T01:02:08.899Z,99228.97
2018-07-28T01:04:39.184Z,99230.57
2018-07-28T01:07:09.494Z,99229.23
2018-07-28T01:09:39.833Z,99235.09
2018-07-28T01:12:10.113Z,99231.32
2018-07-28T01:14:40.477Z,99233.50
2018-07-28T01:17:10.684Z,99231.02
2018-07-28T01:19:41.127Z,99229.27
2018-07-28T01:22:11.473Z,99226.80
2018-07-28T01:24:41.956Z,99222.00
2018-07-28T01:27:12.317Z,99224.61
2018-07-28T01:29:42.917Z,99222.38
2018-07-28T01:32:13.253Z,99227.47
2018-07-28T01:34:43.549Z,99226.70
2018-07-28T01:37:13.789Z,99219.12
2018-07-28T01:39:44.208Z,99221.41
2018-07-28T01:42:14.501Z,99218.29
2018-07-28T01:44:44.800Z,99216.70
2018-07-28T01:47:15.032Z,99215.73
2018-07-28T01:49:45.693Z,99208.16
2018-07-28T01:52:15.940Z,99202.45
2018-07-28T01:54:46.477Z,99204.77
2018-07-28T01:57:16.818Z,99205.23
2018-07-28T01:59:47.466Z,99211.66
2018-07-28T02:02:17.704Z,99209.22
2018-07-28T02:04:48.362Z,99221.92
2018-07-28T02:07:18.622Z,99212.33
2018-07-28T02:09:48.949Z,99204.38
2018-07-28T02:12:19.253Z,99205.72
2018-07-28T02:14:49.617Z,99202.27
2018-07-28T02:17:20.051Z,99211.20
2018-07-28T02:19:50.661Z,99201.19
2018-07-28T02:22:21.185Z,99204.60
2018-07-28T02:24:51.445Z,99201.98
2018-07-28T02:27:21.862Z,99195.24
2018-07-28T02:29:52.217Z,99195.43
2018-07-28T02:32:22.510Z,99209.01
2018-07-28T02:34:53.434Z,99201.90
2018-07-28T02:37:23.728Z,99203.08
2018-07-28T02:39:54.281Z,99201.72
2018-07-28T02:42:24.543Z,99196.69
2018-07-28T02:44:54.816Z,99195.35
2018-07-28T02:47:25.094Z,99193.25
2018-07-28T02:49:55.624Z,99202.16
2018-07-28T02:52:25.878Z,99198.25
2018-07-28T02:54:57.337Z,99195.58
2018-07-28T02:57:27.623Z,99203.20
2018-07-28T02:59:57.463Z,99201.95
2018-07-28T03:02:28.033Z,99206.63
2018-07-28T03:04:58.767Z,99212.15
2018-07-28T03:07:30.313Z,99209.84
2018-07-28T03:10:01.181Z,99211.83
2018-07-28T03:12:31.889Z,99214.86
2018-07-28T03:15:04.139Z,99210.47
2018-07-28T03:17:34.673Z,99218.33
2018-07-28T03:20:05.753Z,99223.05
2018-07-28T03:22:36.345Z,99221.49
2018-07-28T03:25:07.420Z,99221.48
2018-07-28T03:27:38.016Z,99221.26
2018-07-28T03:30:08.657Z,99223.91
2018-07-28T03:32:39.278Z,99223.86
2018-07-28T03:35:10.117Z,99230.30
2018-07-28T03:37:40.765Z,99232.38
2018-07-28T03:40:11.393Z,99229.75
2018-07-28T03:42:41.996Z,99230.87
2018-07-28T03:45:13.093Z,99232.36
2018-07-28T03:47:43.838Z,99235.76
2018-07-28T03:50:15.740Z,99235.00
2018-07-28T03:52:46.176Z,99231.58
2018-07-28T03:55:17.037Z,99231.39
2018-07-28T03:57:47.800Z,99247.27
2018-07-28T04:00:18.456Z,99245.89
2018-07-28T04:02:49.265Z,99244.83
2018-07-28T04:05:20.041Z,99248.45
2018-07-28T04:07:50.664Z,99248.38
2018-07-28T04:10:21.181Z,99245.20
2018-07-28T04:12:51.435Z,99253.61
2018-07-28T04:15:43.172Z,99248.47
2018-07-28T04:18:13.384Z,99252.88
2018-07-28T04:20:46.272Z,99252.39
2018-07-28T04:23:16.881Z,99253.10
2018-07-28T04:25:48.681Z,99255.98
2018-07-28T04:28:19.438Z,99255.29
2018-07-28T04:30:50.141Z,99254.23
2018-07-28T04:33:20.682Z,99250.78
2018-07-28T04:35:51.245Z,99246.80
2018-07-28T04:38:21.797Z,99251.77
2018-07-28T04:40:52.475Z,99252.10
2018-07-28T04:43:24.643Z,99255.92
2018-07-28T04:45:55.536Z,99245.92
2018-07-28T04:48:25.772Z,99249.70
2018-07-28T04:50:56.296Z,99241.77
2018-07-28T04:53:26.573Z,99247.92
2018-07-28T04:55:57.312Z,99242.60
2018-07-28T04:58:28.040Z,99238.70
2018-07-28T05:00:58.849Z,99237.13
2018-07-28T05:03:29.380Z,99237.63
2018-07-28T05:06:00.258Z,99240.72
2018-07-28T05:08:31.109Z,99237.77
2018-07-28T05:11:01.900Z,99239.11
2018-07-28T05:13:32.517Z,99241.37
2018-07-28T05:16:03.246Z,99236.15
2018-07-28T05:18:33.740Z,99237.91
2018-07-28T05:21:04.122Z,99241.84
2018-07-28T05:23:34.905Z,99243.47
2018-07-28T05:26:09.387Z,99238.13
2018-07-28T05:28:39.804Z,99243.89
2018-07-28T05:31:10.258Z,99240.33
2018-07-28T05:33:40.878Z,99239.34
2018-07-28T05:36:12.073Z,99236.52
2018-07-28T05:38:42.429Z,99229.38
2018-07-28T05:41:13.178Z,99235.33
2018-07-28T05:43:43.436Z,99231.95
2018-07-28T05:46:15.433Z,99224.56
2018-07-28T05:48:45.775Z,99230.80
2018-07-28T05:51:16.285Z,99231.05
2018-07-28T05:53:46.660Z,99235.28
2018-07-28T05:56:17.525Z,99237.47
2018-07-28T05:58:48.674Z,99235.05
2018-07-28T06:01:20.011Z,99235.02
2018-07-28T06:03:50.790Z,99237.40
2018-07-28T06:06:21.841Z,99234.14
2018-07-28T06:08:52.789Z,99237.25
2018-07-28T06:11:24.028Z,99239.41
2018-07-28T06:13:55.797Z,99243.86
2018-07-28T06:16:26.492Z,99244.97
2018-07-28T06:18:57.097Z,99247.50
2018-07-28T06:21:27.665Z,99243.17
2018-07-28T06:23:58.837Z,99241.38
2018-07-28T06:26:29.747Z,99240.41
2018-07-28T06:29:00.669Z,99244.55
2018-07-28T06:31:31.497Z,99243.94
2018-07-28T06:34:01.930Z,99241.34
2018-07-28T06:36:32.557Z,99246.09
2018-07-28T06:39:03.160Z,99243.71
2018-07-28T06:41:33.905Z,99242.64
2018-07-28T06:44:04.795Z,99240.45
2018-07-28T06:46:35.783Z,99230.63
2018-07-28T06:49:08.082Z,99237.93
2018-07-28T06:51:39.749Z,99230.35
2018-07-28T06:54:11.837Z,99226.62
2018-07-28T06:56:43.471Z,99218.95
2018-07-28T06:59:13.963Z,99218.98
2018-07-28T07:01:46.596Z,99222.77
2018-07-28T07:04:17.087Z,99217.05
2018-07-28T07:06:47.312Z,99212.69
2018-07-28T07:09:17.865Z,99212.83
2018-07-28T07:11:48.173Z,99212.78
2018-07-28T07:14:18.878Z,99209.62
2018-07-28T07:16:49.596Z,99213.30
2018-07-28T07:19:20.085Z,99209.39
2018-07-28T07:21:50.603Z,99197.00
2018-07-28T07:24:21.374Z,99200.11
2018-07-28T07:26:52.007Z,99194.55
2018-07-28T07:29:24.222Z,99205.55
2018-07-28T07:31:54.997Z,99197.62
2018-07-28T07:34:25.832Z,99196.73
2018-07-28T07:36:56.512Z,99199.31
2018-07-28T07:39:27.397Z,99196.75
2018-07-28T07:41:58.017Z,99196.16
2018-07-28T07:44:28.606Z,99198.56
2018-07-28T07:46:59.521Z,99199.38
2018-07-28T07:49:30.253Z,99202.41
2018-07-28T07:52:01.214Z,99200.09
2018-07-28T07:54:32.193Z,99200.64
2018-07-28T07:57:03.031Z,99202.87
2018-07-28T07:59:34.769Z,99159.03
2018-07-28T08:02:05.839Z,99197.91
2018-07-28T08:04:36.499Z,99192.64
2018-07-28T08:07:07.125Z,99198.86
2018-07-28T08:09:37.748Z,99198.48
2018-07-28T08:12:08.573Z,99191.63
2018-07-28T08:14:39.389Z,99186.64
2018-07-28T08:17:10.005Z,99185.37
2018-07-28T08:19:41.400Z,99189.01
2018-07-28T08:22:12.073Z,99185.92
2018-07-28T08:24:42.625Z,99183.81
2018-07-28T08:27:13.340Z,99186.77
2018-07-28T08:29:44.177Z,99182.02
2018-07-28T08:32:14.448Z,99180.34
2018-07-28T08:34:45.532Z,99182.66
2018-07-28T08:37:15.857Z,99175.72
2018-07-28T08:39:46.690Z,99173.32
2018-07-28T08:42:17.168Z,99176.76
2018-07-28T08:44:47.952Z,99172.22
2018-07-28T08:47:18.677Z,99173.33
2018-07-28T08:49:48.894Z,99176.50
2018-07-28T08:52:19.052Z,99179.34
2018-07-28T08:55:09.707Z,99171.84
2018-07-28T08:57:45.496Z,99163.50
2018-07-28T09:00:16.401Z,99164.12
2018-07-28T09:02:47.073Z,99155.16
2018-07-28T09:05:17.878Z,99155.91
2018-07-28T09:07:48.493Z,99149.75
2018-07-28T09:10:19.568Z,99154.94
2018-07-28T09:12:50.216Z,99151.30
2018-07-28T09:15:20.993Z,99145.70
2018-07-28T09:17:51.765Z,99145.63
2018-07-28T09:20:22.397Z,99146.23
2018-07-28T09:22:53.076Z,99141.63
2018-07-28T09:25:23.929Z,99137.72
2018-07-28T09:27:54.621Z,99133.61
2018-07-28T09:30:25.489Z,99124.45
2018-07-28T09:32:56.077Z,99117.58
2018-07-28T09:35:26.849Z,99112.09
2018-07-28T09:37:57.580Z,99111.49
2018-07-28T09:40:28.406Z,99109.35
2018-07-28T09:42:59.105Z,99111.41
2018-07-28T09:45:29.864Z,99098.92
2018-07-28T09:48:00.417Z,99090.58
2018-07-28T09:50:31.105Z,99096.63
2018-07-28T09:53:01.616Z,99092.72
2018-07-28T09:55:32.288Z,99091.47
2018-07-28T09:58:02.998Z,99088.41
2018-07-28T10:00:38.761Z,99084.94
2018-07-28T10:03:09.330Z,99081.95
2018-07-28T10:05:40.089Z,99078.45
2018-07-28T10:08:10.621Z,99083.12
2018-07-28T10:10:41.296Z,99082.91
2018-07-28T10:13:12.013Z,99077.05
2018-07-28T10:15:42.916Z,99073.20
2018-07-28T10:18:13.560Z,99077.33
2018-07-28T10:20:44.117Z,99073.75
2018-07-28T10:23:14.814Z,99070.28
2018-07-28T10:25:45.821Z,99058.91
2018-07-28T10:28:16.280Z,99066.38
2018-07-28T10:30:47.189Z,99058.61
2018-07-28T10:33:17.828Z,99056.33
2018-07-28T10:35:48.581Z,99052.62
2018-07-28T10:38:19.152Z,99050.01
2018-07-28T10:40:49.780Z,99043.14
2018-07-28T10:43:20.493Z,99037.48
2018-07-28T10:45:51.292Z,99042.12
2018-07-28T10:48:21.780Z,99035.16
2018-07-28T10:50:52.717Z,99039.48
2018-07-28T10:53:23.285Z,99031.24
2018-07-28T10:55:53.973Z,99028.24
2018-07-28T10:58:24.757Z,99031.70
2018-07-28T11:00:55.613Z,99029.56
2018-07-28T11:03:25.584Z,99029.81
2018-07-28T11:05:56.226Z,99027.45
2018-07-28T11:08:26.744Z,99033.91
2018-07-28T11:10:57.352Z,99028.59
2018-07-28T11:13:27.972Z,99030.92
2018-07-28T11:15:59.004Z,99029.59
2018-07-28T11:18:29.621Z,99027.93
2018-07-28T11:21:00.409Z,99025.29
2018-07-28T11:24:02.582Z,99024.34
2018-07-28T11:26:33.449Z,99022.98
2018-07-28T11:29:04.150Z,99017.05
2018-07-28T11:31:51.082Z,99015.87
2018-07-28T11:34:37.826Z,99007.20
2018-07-28T11:37:24.641Z,99000.69
2018-07-28T11:40:11.388Z,98998.47
2018-07-28T11:42:58.311Z,99003.35
2018-07-28T11:45:28.956Z,98995.11
2018-07-28T11:47:59.785Z,98994.14
2018-07-28T11:50:30.326Z,98991.02
2018-07-28T11:53:01.113Z,98989.02
2018-07-28T11:55:31.793Z,98991.38
2018-07-28T11:58:02.894Z,98985.70
2018-07-28T12:00:33.508Z,98985.81
2018-07-28T12:03:04.341Z,98987.45
2018-07-28T12:05:34.926Z,98980.34
2018-07-28T12:08:05.562Z,98976.43
2018-07-28T12:10:36.224Z,98975.05
2018-07-28T12:13:06.608Z,98974.68
2018-07-28T12:15:37.348Z,98972.25
2018-07-28T12:18:08.487Z,98974.30
2018-07-28T12:20:39.220Z,98972.29
2018-07-28T12:23:09.945Z,98975.66
2018-07-28T12:25:40.640Z,98974.34
2018-07-28T12:28:11.448Z,98975.08
2018-07-28T12:30:42.137Z,98970.81
2018-07-28T12:33:12.808Z,98967.50
2018-07-28T12:35:43.679Z,98967.27
2018-07-28T12:38:14.437Z,98962.76
2018-07-28T12:40:45.113Z,98964.52
2018-07-28T12:43:15.764Z,98967.82
2018-07-28T12:45:46.321Z,98968.74
2018-07-28T12:48:17.116Z,98972.34
2018-07-28T12:50:47.888Z,98971.16
2018-07-28T12:53:18.742Z,98966.75
2018-07-28T12:55:49.517Z,98972.42
2018-07-28T12:58:20.268Z,98975.19
2018-07-28T13:00:50.893Z,98975.13
2018-07-28T13:03:21.585Z,98970.19
2018-07-28T13:05:52.217Z,98973.42
2018-07-28T13:08:23.149Z,98976.81
2018-07-28T13:10:53.824Z,98973.80
2018-07-28T13:13:24.800Z,98969.27
2018-07-28T13:15:55.542Z,98970.41
2018-07-28T13:18:26.200Z,98971.02
2018-07-28T13:20:56.801Z,98975.97
2018-07-28T13:23:27.660Z,98985.11
2018-07-28T13:25:58.217Z,98990.49
2018-07-28T13:28:29.024Z,99009.92
2018-07-28T13:30:59.677Z,99010.19
2018-07-28T13:33:30.545Z,99016.44
2018-07-28T13:36:01.197Z,99018.36
2018-07-28T13:38:31.905Z,99033.86
2018-07-28T13:41:02.562Z,99049.28
2018-07-28T13:43:33.069Z,99058.00
2018-07-28T13:46:21.052Z,99058.64
2018-07-28T13:48:51.719Z,99066.16
2018-07-28T13:51:22.349Z,99070.72
2018-07-28T13:53:52.876Z,99072.19
2018-07-28T13:56:23.496Z,99079.15
2018-07-28T13:58:54.333Z,99079.84
2018-07-28T14:01:24.865Z,99085.33
2018-07-28T14:03:55.798Z,99079.59
2018-07-28T14:06:26.362Z,99066.33
2018-07-28T14:08:56.838Z,99067.84
2018-07-28T14:11:27.389Z,99058.15
2018-07-28T14:13:58.117Z,99056.52
2018-07-28T14:16:28.601Z,99058.27
2018-07-28T14:18:59.446Z,99051.77
2018-07-28T14:21:29.989Z,99054.23
2018-07-28T14:24:00.638Z,99051.17
2018-07-28T14:26:31.145Z,99052.23
2018-07-28T14:29:01.841Z,99041.27
2018-07-28T14:31:32.286Z,99050.45
2018-07-28T14:34:03.153Z,99045.81
2018-07-28T14:36:42.444Z,99049.06
2018-07-28T14:39:13.121Z,99043.16
2018-07-28T14:41:43.749Z,99046.41
2018-07-28T14:44:14.443Z,99041.45
2018-07-28T14:46:45.267Z,99040.48
2018-07-28T14:49:16.205Z,99041.61
2018-07-28T14:51:47.529Z,99042.33
2018-07-28T14:54:18.037Z,99043.91
2018-07-28T14:56:48.917Z,99041.39
2018-07-28T14:59:19.865Z,99033.20
2018-07-28T15:01:50.377Z,99039.11
2018-07-28T15:04:21.169Z,99040.80
2018-07-28T15:06:51.813Z,99046.14
2018-07-28T15:09:22.508Z,99048.27
2018-07-28T15:11:53.145Z,99036.74
2018-07-28T15:14:23.812Z,99042.14
2018-07-28T15:16:54.494Z,99045.14
2018-07-28T15:19:25.297Z,99048.64
2018-07-28T15:21:55.949Z,99050.67
2018-07-28T15:24:27.026Z,99054.73
2018-07-28T15:26:57.748Z,99041.20
2018-07-28T15:29:28.376Z,99045.83
2018-07-28T15:31:59.002Z,99043.94
2018-07-28T15:34:29.720Z,99044.78
2018-07-28T15:37:00.380Z,99045.38
2018-07-28T15:39:30.649Z,99052.03
2018-07-28T15:42:01.260Z,99048.93
2018-07-28T15:44:32.084Z,99048.72
2018-07-28T15:47:02.897Z,99048.93
2018-07-28T15:49:33.925Z,99050.86
2018-07-28T15:52:04.478Z,99054.02
2018-07-28T15:54:35.301Z,99053.33
2018-07-28T15:57:06.273Z,99059.12
2018-07-28T15:59:37.104Z,99057.06
2018-07-28T16:02:07.881Z,99063.45
2018-07-28T16:04:38.649Z,99064.91
2018-07-28T16:07:09.397Z,99067.14
2018-07-28T16:09:40.597Z,99069.34
2018-07-28T16:12:11.152Z,99071.97
2018-07-28T16:14:41.989Z,99066.69
2018-07-28T16:17:12.613Z,99059.38
2018-07-28T16:19:43.300Z,99064.86
2018-07-28T16:22:13.936Z,99057.16
2018-07-28T16:24:45.022Z,99066.14
2018-07-28T16:27:15.569Z,99064.55
2018-07-28T16:29:46.457Z,99068.61
2018-07-28T16:32:17.045Z,99065.09
2018-07-28T16:34:47.632Z,99070.20
2018-07-28T16:37:18.216Z,99063.77
2018-07-28T16:39:48.616Z,99067.86
2018-07-28T16:42:19.236Z,99069.56
2018-07-28T16:44:50.073Z,99069.73
2018-07-28T16:47:20.637Z,99074.13
2018-07-28T16:49:51.408Z,99065.02
2018-07-28T16:52:22.214Z,99067.09
2018-07-28T16:54:53.238Z,99071.13
2018-07-28T16:57:23.881Z,99077.03
2018-07-28T16:59:54.704Z,99074.52
2018-07-28T17:02:25.246Z,99083.39
2018-07-28T17:04:56.073Z,99080.65
2018-07-28T17:07:26.754Z,99080.92
2018-07-28T17:09:57.810Z,99085.47
2018-07-28T17:12:28.432Z,99087.01
2018-07-28T17:14:59.062Z,99098.36
2018-07-28T17:17:29.613Z,99099.26
2018-07-28T17:20:00.218Z,99110.75
2018-07-28T17:22:30.871Z,99107.27
2018-07-28T17:25:01.590Z,99109.98
2018-07-28T17:27:32.268Z,99101.90
2018-07-28T17:30:03.056Z,99115.19
2018-07-28T17:32:33.636Z,99113.67
2018-07-28T17:35:04.501Z,99122.98
2018-07-28T17:37:35.816Z,99128.86
2018-07-28T17:40:06.452Z,99124.77
2018-07-28T17:42:37.076Z,99133.89
2018-07-28T17:45:08.502Z,99133.17
2018-07-28T17:47:39.017Z,99130.25
2018-07-28T17:50:09.619Z,99136.59
2018-07-28T17:52:40.188Z,99134.38
2018-07-28T17:55:10.825Z,99137.64
2018-07-28T17:57:41.476Z,99143.64
2018-07-28T18:00:12.181Z,99139.97
2018-07-28T18:02:42.788Z,99145.81
2018-07-28T18:05:13.417Z,99144.09
2018-07-28T18:07:44.066Z,99148.09
2018-07-28T18:10:15.101Z,99148.31
2018-07-28T18:12:45.672Z,99145.46
2018-07-28T18:15:16.449Z,99135.12
2018-07-28T18:17:47.194Z,99144.61
2018-07-28T18:20:17.950Z,99147.48
2018-07-28T18:22:48.726Z,99149.02
2018-07-28T18:25:19.461Z,99155.58
2018-07-28T18:27:49.973Z,99154.80
2018-07-28T18:30:20.813Z,99168.50
2018-07-28T18:32:51.595Z,99168.97
2018-07-28T18:35:22.573Z,99173.83
2018-07-28T18:37:53.221Z,99171.59
2018-07-28T18:40:23.970Z,99176.46
2018-07-28T18:42:54.198Z,99172.73
2018-07-28T18:45:24.961Z,99179.94
2018-07-28T18:47:55.697Z,99182.48
2018-07-28T18:50:26.553Z,99193.76
2018-07-28T18:52:57.205Z,99191.42
2018-07-28T18:55:28.004Z,99192.08
2018-07-28T18:57:58.628Z,99194.89
2018-07-28T19:00:29.369Z,99196.17
2018-07-28T19:02:59.937Z,99188.92
2018-07-28T19:05:30.605Z,99191.47
2018-07-28T19:08:01.285Z,99196.92
2018-07-28T19:10:31.945Z,99189.80
2018-07-28T19:13:07.645Z,99198.12
2018-07-28T19:15:38.530Z,99189.88
2018-07-28T19:18:14.081Z,99192.43
2018-07-28T19:20:44.797Z,99201.78
2018-07-28T19:23:20.340Z,99204.77
2018-07-28T19:25:50.857Z,99203.45
2018-07-28T19:28:26.373Z,99197.66
2018-07-28T19:30:57.098Z,99198.07
2018-07-28T19:33:27.657Z,99189.57
2018-07-28T19:36:03.278Z,99184.71
2018-07-28T19:38:33.936Z,99178.03
2018-07-28T19:41:04.510Z,99181.98
2018-07-28T19:43:35.117Z,99186.12
2018-07-28T19:46:05.957Z,99180.89
2018-07-28T19:48:36.697Z,99186.11
2018-07-28T19:51:07.893Z,99180.25
2018-07-28T19:53:38.393Z,99185.33
2018-07-28T19:56:09.126Z,99188.54
2018-07-28T19:58:39.732Z,99188.66
2018-07-28T20:01:10.689Z,99190.75
2018-07-28T20:03:41.396Z,99191.48
2018-07-28T20:06:12.533Z,99201.53
2018-07-28T20:08:43.214Z,99202.30
2018-07-28T20:11:14.000Z,99203.20
2018-07-28T20:13:44.684Z,99206.03
2018-07-28T20:16:15.408Z,99212.54
2018-07-28T20:18:45.982Z,99226.30
2018-07-28T20:21:16.685Z,99229.16
2018-07-28T20:23:47.312Z,99233.53
2018-07-28T20:26:18.242Z,99234.10
2018-07-28T20:28:48.841Z,99240.50
2018-07-28T20:31:19.545Z,99238.61
2018-07-28T20:33:50.197Z,99239.27
2018-07-28T20:36:21.189Z,99248.52
2018-07-28T20:38:51.817Z,99240.25
2018-07-28T20:41:22.532Z,99234.84
2018-07-28T20:43:54.057Z,99229.77
2018-07-28T20:46:24.733Z,99230.57
2018-07-28T20:48:55.384Z,99236.66
2018-07-28T20:51:26.159Z,99245.13
2018-07-28T20:53:56.776Z,99252.23
2018-07-28T20:56:27.384Z,99256.08
2018-07-28T20:58:57.904Z,99254.32
2018-07-28T21:01:28.480Z,99249.25
2018-07-28T21:03:59.097Z,99254.80
2018-07-28T21:06:29.861Z,99252.46
2018-07-28T21:09:00.659Z,99251.72
2018-07-28T21:11:31.382Z,99245.39
2018-07-28T21:14:02.924Z,99242.72
2018-07-28T21:16:33.794Z,99250.31
2018-07-28T21:19:04.737Z,99260.16
2018-07-28T21:21:36.871Z,99266.92
2018-07-28T21:24:07.726Z,99270.56
2018-07-28T21:26:38.393Z,99260.05
2018-07-28T21:29:09.034Z,99259.80
2018-07-28T21:31:39.857Z,99265.41
2018-07-28T21:34:10.555Z,99266.73
2018-07-28T21:36:41.938Z,99282.47
2018-07-28T21:39:12.465Z,99280.95
2018-07-28T21:41:43.145Z,99284.85
2018-07-28T21:44:13.717Z,99284.22
2018-07-28T21:46:44.789Z,99281.26
2018-07-28T21:49:15.397Z,99285.88
2018-07-28T21:51:46.077Z,99284.00
2018-07-28T21:54:16.803Z,99284.78
2018-07-28T21:56:47.426Z,99300.34
2018-07-28T21:59:18.211Z,99300.10
2018-07-28T22:01:48.388Z,99305.26
2018-07-28T22:04:23.869Z,99304.03
2018-07-28T22:06:55.506Z,99298.14
2018-07-28T22:09:26.141Z,99301.64
2018-07-28T22:11:56.724Z,99303.84
2018-07-28T22:14:27.736Z,99297.30
2018-07-28T22:16:58.545Z,99295.78
2018-07-28T22:19:47.625Z,99291.84
2018-07-28T22:22:18.037Z,99286.41
2018-07-28T22:24:48.872Z,99280.83
2018-07-28T22:27:19.409Z,99268.16
2018-07-28T22:29:50.268Z,99268.68
2018-07-28T22:32:20.841Z,99276.00
2018-07-28T22:34:51.831Z,99290.48
2018-07-28T22:37:22.364Z,99303.62
2018-07-28T22:39:52.985Z,99311.05
2018-07-28T22:42:38.544Z,99320.56
2018-07-28T22:45:09.299Z,99324.78
2018-07-28T22:47:39.929Z,99324.97
2018-07-28T22:50:10.724Z,99320.27
2018-07-28T22:52:41.443Z,99319.52
2018-07-28T22:55:12.393Z,99318.11
2018-07-28T22:57:43.085Z,99318.27
2018-07-28T23:00:13.954Z,99319.40
2018-07-28T23:02:46.357Z,99307.17
2018-07-28T23:05:17.160Z,99313.64
2018-07-28T23:07:47.796Z,99316.38
2018-07-28T23:10:18.388Z,99305.10
2018-07-28T23:12:49.118Z,99306.91
2018-07-28T23:15:19.896Z,99300.66
2018-07-28T23:17:50.636Z,99297.73
2018-07-28T23:20:21.423Z,99297.53
2018-07-28T23:22:51.969Z,99292.04
2018-07-28T23:25:22.768Z,99288.39
2018-07-28T23:27:53.625Z,99290.51
2018-07-28T23:30:24.637Z,99300.43
2018-07-28T23:32:56.779Z,99295.44
2018-07-28T23:35:27.511Z,99304.92
2018-07-28T23:37:58.206Z,99305.23
2018-07-28T23:40:28.928Z,99308.67
2018-07-28T23:42:59.500Z,99304.45
2018-07-28T23:45:31.437Z,99296.39
2018-07-28T23:48:01.973Z,99286.44
2018-07-28T23:50:32.524Z,99280.45
2018-07-28T23:53:03.584Z,99275.20
2018-07-28T23:55:34.414Z,99271.58
2018-07-28T23:58:05.048Z,99272.23
